sensor_id;sensor_type;location;lat;lon;timestamp;P1;durP1;ratioP1;P2;durP2;ratioP2
2474;SDS011;1248;48.694;10.160;2022-08-20T00:00:47;0.80;;;0.60;;
2474;SDS011;1248;48.694;10.160;2022-08-20T00:03:19;0.80;;;0.60;;
2474;SDS011;1248;48.694;10.160;2022-08-20T00:05:48;0.80;;;0.50;;
2474;SDS011;1248;48.694;10.160;2022-08-20T00:08:17;0.80;;;0.50;;
2474;SDS011;1248;48.694;10.160;2022-08-20T00:10:47;0.80;;;0.50;;
2474;SDS011;1248;48.694;10.160;2022-08-20T00:13:17;0.80;;;0.50;;
2474;SDS011;1248;48.694;10.160;2022-08-20T00:15:47;0.80;;;0.50;;
2474;SDS011;1248;48.694;10.160;2022-08-20T00:18:14;0.80;;;0.50;;
2474;SDS011;1248;48.694;10.160;2022-08-20T00:20:42;0.90;;;0.70;;
2474;SDS011;1248;48.694;10.160;2022-08-20T00:23:11;1.00;;;0.60;;
2474;SDS011;1248;48.694;10.160;2022-08-20T00:25:38;0.80;;;0.50;;
2474;SDS011;1248;48.694;10.160;2022-08-20T00:28:07;0.80;;;0.50;;
2474;SDS011;1248;48.694;10.160;2022-08-20T00:30:34;0.80;;;0.50;;
2474;SDS011;1248;48.694;10.160;2022-08-20T00:33:02;0.80;;;0.60;;
2474;SDS011;1248;48.694;10.160;2022-08-20T00:35:32;0.80;;;0.50;;
2474;SDS011;1248;48.694;10.160;2022-08-20T00:38:00;0.80;;;0.50;;
2474;SDS011;1248;48.694;10.160;2022-08-20T00:40:30;0.80;;;0.50;;
2474;SDS011;1248;48.694;10.160;2022-08-20T00:43:00;0.80;;;0.50;;
2474;SDS011;1248;48.694;10.160;2022-08-20T00:45:31;6.97;;;3.80;;
2474;SDS011;1248;48.694;10.160;2022-08-20T00:47:59;0.80;;;0.50;;
2474;SDS011;1248;48.694;10.160;2022-08-20T00:50:28;0.80;;;0.50;;
2474;SDS011;1248;48.694;10.160;2022-08-20T00:53:03;0.80;;;0.53;;
2474;SDS011;1248;48.694;10.160;2022-08-20T00:55:33;1.30;;;1.20;;
2474;SDS011;1248;48.694;10.160;2022-08-20T00:58:03;0.80;;;0.60;;
2474;SDS011;1248;48.694;10.160;2022-08-20T01:00:36;1.23;;;1.07;;
2474;SDS011;1248;48.694;10.160;2022-08-20T01:03:05;0.80;;;0.50;;
2474;SDS011;1248;48.694;10.160;2022-08-20T01:05:34;0.80;;;0.50;;
2474;SDS011;1248;48.694;10.160;2022-08-20T01:08:02;0.80;;;0.60;;
2474;SDS011;1248;48.694;10.160;2022-08-20T01:10:31;0.80;;;0.50;;
2474;SDS011;1248;48.694;10.160;2022-08-20T01:13:00;1.90;;;1.47;;
2474;SDS011;1248;48.694;10.160;2022-08-20T01:15:36;0.80;;;0.53;;
2474;SDS011;1248;48.694;10.160;2022-08-20T01:18:04;0.80;;;0.50;;
2474;SDS011;1248;48.694;10.160;2022-08-20T01:20:33;0.80;;;0.50;;
2474;SDS011;1248;48.694;10.160;2022-08-20T01:23:05;1.00;;;0.90;;
2474;SDS011;1248;48.694;10.160;2022-08-20T01:25:57;0.80;;;0.60;;
2474;SDS011;1248;48.694;10.160;2022-08-20T01:28:29;0.80;;;0.50;;
2474;SDS011;1248;48.694;10.160;2022-08-20T01:31:00;0.80;;;0.80;;
2474;SDS011;1248;48.694;10.160;2022-08-20T01:33:28;0.80;;;0.60;;
2474;SDS011;1248;48.694;10.160;2022-08-20T01:35:55;0.80;;;0.50;;
2474;SDS011;1248;48.694;10.160;2022-08-20T01:38:22;0.80;;;0.53;;
2474;SDS011;1248;48.694;10.160;2022-08-20T01:40:51;0.80;;;0.60;;
2474;SDS011;1248;48.694;10.160;2022-08-20T01:43:26;0.80;;;0.50;;
2474;SDS011;1248;48.694;10.160;2022-08-20T01:45:53;0.80;;;0.50;;
2474;SDS011;1248;48.694;10.160;2022-08-20T01:48:20;0.80;;;0.50;;
2474;SDS011;1248;48.694;10.160;2022-08-20T01:50:51;0.80;;;0.50;;
2474;SDS011;1248;48.694;10.160;2022-08-20T01:53:21;0.80;;;0.60;;
2474;SDS011;1248;48.694;10.160;2022-08-20T01:55:51;0.80;;;0.50;;
2474;SDS011;1248;48.694;10.160;2022-08-20T01:58:19;0.80;;;0.50;;
2474;SDS011;1248;48.694;10.160;2022-08-20T02:00:46;0.80;;;0.57;;
2474;SDS011;1248;48.694;10.160;2022-08-20T02:03:13;0.80;;;0.70;;
2474;SDS011;1248;48.694;10.160;2022-08-20T02:05:40;1.43;;;1.33;;
2474;SDS011;1248;48.694;10.160;2022-08-20T02:08:08;0.80;;;0.60;;
2474;SDS011;1248;48.694;10.160;2022-08-20T02:10:35;0.80;;;0.57;;
2474;SDS011;1248;48.694;10.160;2022-08-20T02:13:02;0.80;;;0.50;;
2474;SDS011;1248;48.694;10.160;2022-08-20T02:15:32;0.80;;;0.50;;
2474;SDS011;1248;48.694;10.160;2022-08-20T02:18:01;0.80;;;0.60;;
2474;SDS011;1248;48.694;10.160;2022-08-20T02:20:29;0.80;;;0.50;;
2474;SDS011;1248;48.694;10.160;2022-08-20T02:22:57;0.80;;;0.60;;
2474;SDS011;1248;48.694;10.160;2022-08-20T02:25:27;0.80;;;0.60;;
2474;SDS011;1248;48.694;10.160;2022-08-20T02:27:57;0.80;;;0.60;;
2474;SDS011;1248;48.694;10.160;2022-08-20T02:30:29;0.80;;;0.60;;
2474;SDS011;1248;48.694;10.160;2022-08-20T02:32:59;0.80;;;0.50;;
2474;SDS011;1248;48.694;10.160;2022-08-20T02:35:28;0.80;;;0.60;;
2474;SDS011;1248;48.694;10.160;2022-08-20T02:37:55;0.80;;;0.60;;
2474;SDS011;1248;48.694;10.160;2022-08-20T02:40:24;0.80;;;0.60;;
2474;SDS011;1248;48.694;10.160;2022-08-20T02:42:52;0.80;;;0.50;;
2474;SDS011;1248;48.694;10.160;2022-08-20T02:45:20;0.80;;;0.60;;
2474;SDS011;1248;48.694;10.160;2022-08-20T02:47:49;0.80;;;0.50;;
2474;SDS011;1248;48.694;10.160;2022-08-20T02:50:18;0.80;;;0.50;;
2474;SDS011;1248;48.694;10.160;2022-08-20T02:52:46;0.80;;;0.50;;
2474;SDS011;1248;48.694;10.160;2022-08-20T02:55:13;0.80;;;0.60;;
2474;SDS011;1248;48.694;10.160;2022-08-20T02:57:41;0.80;;;0.50;;
2474;SDS011;1248;48.694;10.160;2022-08-20T03:00:09;0.80;;;0.60;;
2474;SDS011;1248;48.694;10.160;2022-08-20T03:02:38;0.80;;;0.50;;
2474;SDS011;1248;48.694;10.160;2022-08-20T03:05:07;0.80;;;0.60;;
2474;SDS011;1248;48.694;10.160;2022-08-20T03:07:39;0.80;;;0.60;;
2474;SDS011;1248;48.694;10.160;2022-08-20T03:10:07;0.80;;;0.60;;
2474;SDS011;1248;48.694;10.160;2022-08-20T03:12:35;0.80;;;0.60;;
2474;SDS011;1248;48.694;10.160;2022-08-20T03:15:03;0.80;;;0.60;;
2474;SDS011;1248;48.694;10.160;2022-08-20T03:17:31;0.80;;;0.60;;
2474;SDS011;1248;48.694;10.160;2022-08-20T03:19:58;0.80;;;0.50;;
2474;SDS011;1248;48.694;10.160;2022-08-20T03:22:27;0.80;;;0.60;;
2474;SDS011;1248;48.694;10.160;2022-08-20T03:24:54;0.80;;;0.50;;
2474;SDS011;1248;48.694;10.160;2022-08-20T03:27:21;0.80;;;0.50;;
2474;SDS011;1248;48.694;10.160;2022-08-20T03:29:48;0.80;;;0.57;;
2474;SDS011;1248;48.694;10.160;2022-08-20T03:32:15;0.80;;;0.50;;
2474;SDS011;1248;48.694;10.160;2022-08-20T03:34:42;0.80;;;0.60;;
2474;SDS011;1248;48.694;10.160;2022-08-20T03:37:09;0.80;;;0.60;;
2474;SDS011;1248;48.694;10.160;2022-08-20T03:39:38;0.80;;;0.60;;
2474;SDS011;1248;48.694;10.160;2022-08-20T03:42:05;0.80;;;0.60;;
2474;SDS011;1248;48.694;10.160;2022-08-20T03:44:33;0.80;;;0.60;;
2474;SDS011;1248;48.694;10.160;2022-08-20T03:47:01;0.80;;;0.50;;
2474;SDS011;1248;48.694;10.160;2022-08-20T03:49:32;0.80;;;0.60;;
2474;SDS011;1248;48.694;10.160;2022-08-20T03:52:00;0.80;;;0.60;;
2474;SDS011;1248;48.694;10.160;2022-08-20T03:54:28;1.00;;;0.87;;
2474;SDS011;1248;48.694;10.160;2022-08-20T03:56:56;3.90;;;1.93;;
2474;SDS011;1248;48.694;10.160;2022-08-20T03:59:23;0.80;;;0.60;;
2474;SDS011;1248;48.694;10.160;2022-08-20T04:01:50;0.80;;;0.50;;
2474;SDS011;1248;48.694;10.160;2022-08-20T04:04:19;0.80;;;0.60;;
2474;SDS011;1248;48.694;10.160;2022-08-20T04:06:46;0.80;;;0.60;;
2474;SDS011;1248;48.694;10.160;2022-08-20T04:09:13;0.80;;;0.50;;
2474;SDS011;1248;48.694;10.160;2022-08-20T04:11:41;0.80;;;0.60;;
2474;SDS011;1248;48.694;10.160;2022-08-20T04:14:09;0.80;;;0.50;;
2474;SDS011;1248;48.694;10.160;2022-08-20T04:16:37;0.80;;;0.60;;
2474;SDS011;1248;48.694;10.160;2022-08-20T04:19:05;0.80;;;0.60;;
2474;SDS011;1248;48.694;10.160;2022-08-20T04:21:32;0.80;;;0.60;;
2474;SDS011;1248;48.694;10.160;2022-08-20T04:24:00;0.80;;;0.50;;
2474;SDS011;1248;48.694;10.160;2022-08-20T04:26:28;0.80;;;0.50;;
2474;SDS011;1248;48.694;10.160;2022-08-20T04:28:55;0.80;;;0.60;;
2474;SDS011;1248;48.694;10.160;2022-08-20T04:31:24;0.80;;;0.60;;
2474;SDS011;1248;48.694;10.160;2022-08-20T04:33:58;0.80;;;0.60;;
2474;SDS011;1248;48.694;10.160;2022-08-20T04:36:25;0.80;;;0.60;;
2474;SDS011;1248;48.694;10.160;2022-08-20T04:38:52;0.80;;;0.60;;
2474;SDS011;1248;48.694;10.160;2022-08-20T04:41:20;0.80;;;0.60;;
2474;SDS011;1248;48.694;10.160;2022-08-20T04:43:46;0.80;;;0.60;;
2474;SDS011;1248;48.694;10.160;2022-08-20T04:46:13;0.80;;;0.50;;
2474;SDS011;1248;48.694;10.160;2022-08-20T04:48:42;0.80;;;0.50;;
2474;SDS011;1248;48.694;10.160;2022-08-20T04:51:09;0.80;;;0.60;;
2474;SDS011;1248;48.694;10.160;2022-08-20T04:53:39;0.80;;;0.70;;
2474;SDS011;1248;48.694;10.160;2022-08-20T04:56:07;0.80;;;0.60;;
2474;SDS011;1248;48.694;10.160;2022-08-20T04:58:37;0.80;;;0.60;;
2474;SDS011;1248;48.694;10.160;2022-08-20T05:01:06;0.80;;;0.60;;
2474;SDS011;1248;48.694;10.160;2022-08-20T05:03:34;0.80;;;0.50;;
2474;SDS011;1248;48.694;10.160;2022-08-20T05:06:04;0.80;;;0.50;;
2474;SDS011;1248;48.694;10.160;2022-08-20T05:08:32;0.80;;;0.60;;
2474;SDS011;1248;48.694;10.160;2022-08-20T05:11:01;0.80;;;0.60;;
2474;SDS011;1248;48.694;10.160;2022-08-20T05:13:28;0.80;;;0.60;;
2474;SDS011;1248;48.694;10.160;2022-08-20T05:15:55;0.80;;;0.60;;
2474;SDS011;1248;48.694;10.160;2022-08-20T05:18:24;0.80;;;0.60;;
2474;SDS011;1248;48.694;10.160;2022-08-20T05:20:52;0.80;;;0.80;;
2474;SDS011;1248;48.694;10.160;2022-08-20T05:23:30;1.00;;;0.90;;
2474;SDS011;1248;48.694;10.160;2022-08-20T05:25:58;0.80;;;0.57;;
2474;SDS011;1248;48.694;10.160;2022-08-20T05:28:26;0.80;;;0.60;;
2474;SDS011;1248;48.694;10.160;2022-08-20T05:30:57;0.80;;;0.50;;
2474;SDS011;1248;48.694;10.160;2022-08-20T05:33:25;0.80;;;0.60;;
2474;SDS011;1248;48.694;10.160;2022-08-20T05:35:53;0.80;;;0.60;;
2474;SDS011;1248;48.694;10.160;2022-08-20T05:38:21;0.80;;;0.50;;
2474;SDS011;1248;48.694;10.160;2022-08-20T05:40:51;0.80;;;0.60;;
2474;SDS011;1248;48.694;10.160;2022-08-20T05:43:18;0.80;;;0.60;;
2474;SDS011;1248;48.694;10.160;2022-08-20T05:45:47;0.80;;;0.60;;
2474;SDS011;1248;48.694;10.160;2022-08-20T05:48:16;0.80;;;0.60;;
2474;SDS011;1248;48.694;10.160;2022-08-20T05:50:46;0.80;;;0.50;;
2474;SDS011;1248;48.694;10.160;2022-08-20T05:53:15;0.80;;;0.60;;
2474;SDS011;1248;48.694;10.160;2022-08-20T05:55:42;0.80;;;0.60;;
2474;SDS011;1248;48.694;10.160;2022-08-20T05:58:15;0.80;;;0.53;;
2474;SDS011;1248;48.694;10.160;2022-08-20T06:00:43;0.80;;;0.57;;
2474;SDS011;1248;48.694;10.160;2022-08-20T06:03:11;0.80;;;0.50;;
2474;SDS011;1248;48.694;10.160;2022-08-20T06:05:55;0.80;;;0.60;;
2474;SDS011;1248;48.694;10.160;2022-08-20T06:08:22;0.80;;;0.50;;
2474;SDS011;1248;48.694;10.160;2022-08-20T06:10:50;1.27;;;1.17;;
2474;SDS011;1248;48.694;10.160;2022-08-20T06:13:18;0.80;;;0.60;;
2474;SDS011;1248;48.694;10.160;2022-08-20T06:15:45;0.80;;;0.50;;
2474;SDS011;1248;48.694;10.160;2022-08-20T06:18:12;0.80;;;0.50;;
2474;SDS011;1248;48.694;10.160;2022-08-20T06:20:39;0.80;;;0.60;;
2474;SDS011;1248;48.694;10.160;2022-08-20T06:23:06;0.80;;;0.50;;
2474;SDS011;1248;48.694;10.160;2022-08-20T06:25:34;0.80;;;0.50;;
2474;SDS011;1248;48.694;10.160;2022-08-20T06:28:01;0.80;;;0.50;;
2474;SDS011;1248;48.694;10.160;2022-08-20T06:30:30;0.80;;;0.60;;
2474;SDS011;1248;48.694;10.160;2022-08-20T06:32:57;0.80;;;0.50;;
2474;SDS011;1248;48.694;10.160;2022-08-20T06:35:25;0.80;;;0.50;;
2474;SDS011;1248;48.694;10.160;2022-08-20T06:37:52;0.80;;;0.50;;
2474;SDS011;1248;48.694;10.160;2022-08-20T06:40:20;0.80;;;0.60;;
2474;SDS011;1248;48.694;10.160;2022-08-20T06:42:49;0.80;;;0.50;;
2474;SDS011;1248;48.694;10.160;2022-08-20T06:45:16;0.80;;;0.50;;
2474;SDS011;1248;48.694;10.160;2022-08-20T06:47:50;0.80;;;0.50;;
2474;SDS011;1248;48.694;10.160;2022-08-20T06:50:19;0.80;;;0.60;;
2474;SDS011;1248;48.694;10.160;2022-08-20T06:52:47;0.80;;;0.50;;
2474;SDS011;1248;48.694;10.160;2022-08-20T06:55:15;0.97;;;0.73;;
2474;SDS011;1248;48.694;10.160;2022-08-20T06:57:42;0.80;;;0.50;;
2474;SDS011;1248;48.694;10.160;2022-08-20T07:00:10;0.80;;;0.50;;
2474;SDS011;1248;48.694;10.160;2022-08-20T07:02:39;0.80;;;0.50;;
2474;SDS011;1248;48.694;10.160;2022-08-20T07:05:08;0.80;;;0.50;;
2474;SDS011;1248;48.694;10.160;2022-08-20T07:07:36;0.80;;;0.60;;
2474;SDS011;1248;48.694;10.160;2022-08-20T07:10:04;0.80;;;0.50;;
2474;SDS011;1248;48.694;10.160;2022-08-20T07:12:32;0.80;;;0.50;;
2474;SDS011;1248;48.694;10.160;2022-08-20T07:15:01;0.80;;;0.50;;
2474;SDS011;1248;48.694;10.160;2022-08-20T07:17:29;0.80;;;0.50;;
2474;SDS011;1248;48.694;10.160;2022-08-20T07:19:56;10.03;;;4.73;;
2474;SDS011;1248;48.694;10.160;2022-08-20T07:22:24;7.17;;;5.17;;
2474;SDS011;1248;48.694;10.160;2022-08-20T07:24:51;7.30;;;6.30;;
2474;SDS011;1248;48.694;10.160;2022-08-20T07:27:19;9.47;;;6.13;;
2474;SDS011;1248;48.694;10.160;2022-08-20T07:29:48;8.27;;;6.20;;
2474;SDS011;1248;48.694;10.160;2022-08-20T07:32:32;6.60;;;5.90;;
2474;SDS011;1248;48.694;10.160;2022-08-20T07:35:03;9.37;;;7.13;;
2474;SDS011;1248;48.694;10.160;2022-08-20T07:37:37;7.77;;;6.40;;
2474;SDS011;1248;48.694;10.160;2022-08-20T07:40:06;7.23;;;6.10;;
2474;SDS011;1248;48.694;10.160;2022-08-20T07:42:35;7.60;;;6.20;;
2474;SDS011;1248;48.694;10.160;2022-08-20T07:45:04;8.27;;;6.30;;
2474;SDS011;1248;48.694;10.160;2022-08-20T07:47:31;6.50;;;5.90;;
2474;SDS011;1248;48.694;10.160;2022-08-20T07:50:00;6.77;;;6.03;;
2474;SDS011;1248;48.694;10.160;2022-08-20T07:52:27;7.23;;;6.63;;
2474;SDS011;1248;48.694;10.160;2022-08-20T07:54:56;9.43;;;7.23;;
2474;SDS011;1248;48.694;10.160;2022-08-20T07:57:23;8.07;;;7.27;;
2474;SDS011;1248;48.694;10.160;2022-08-20T07:59:50;6.93;;;6.33;;
2474;SDS011;1248;48.694;10.160;2022-08-20T08:02:17;10.93;;;7.10;;
2474;SDS011;1248;48.694;10.160;2022-08-20T08:04:44;9.90;;;7.77;;
2474;SDS011;1248;48.694;10.160;2022-08-20T08:07:11;8.90;;;8.00;;
2474;SDS011;1248;48.694;10.160;2022-08-20T08:09:38;8.90;;;8.10;;
2474;SDS011;1248;48.694;10.160;2022-08-20T08:12:07;8.20;;;7.40;;
2474;SDS011;1248;48.694;10.160;2022-08-20T08:14:34;8.40;;;7.70;;
2474;SDS011;1248;48.694;10.160;2022-08-20T08:17:02;9.73;;;8.73;;
2474;SDS011;1248;48.694;10.160;2022-08-20T08:19:30;9.67;;;8.67;;
2474;SDS011;1248;48.694;10.160;2022-08-20T08:22:02;9.80;;;8.80;;
2474;SDS011;1248;48.694;10.160;2022-08-20T08:24:29;10.07;;;9.10;;
2474;SDS011;1248;48.694;10.160;2022-08-20T08:26:56;9.47;;;8.63;;
2474;SDS011;1248;48.694;10.160;2022-08-20T08:29:25;9.10;;;8.33;;
2474;SDS011;1248;48.694;10.160;2022-08-20T08:31:52;10.00;;;9.17;;
2474;SDS011;1248;48.694;10.160;2022-08-20T08:34:19;9.20;;;8.17;;
2474;SDS011;1248;48.694;10.160;2022-08-20T08:36:49;9.77;;;8.83;;
2474;SDS011;1248;48.694;10.160;2022-08-20T08:39:17;9.80;;;8.80;;
2474;SDS011;1248;48.694;10.160;2022-08-20T08:41:45;10.40;;;8.90;;
2474;SDS011;1248;48.694;10.160;2022-08-20T08:44:15;9.97;;;9.00;;
2474;SDS011;1248;48.694;10.160;2022-08-20T08:46:50;9.33;;;8.33;;
2474;SDS011;1248;48.694;10.160;2022-08-20T08:49:22;10.87;;;9.73;;
2474;SDS011;1248;48.694;10.160;2022-08-20T08:51:52;10.03;;;8.03;;
2474;SDS011;1248;48.694;10.160;2022-08-20T08:54:22;8.90;;;8.10;;
2474;SDS011;1248;48.694;10.160;2022-08-20T08:56:50;9.83;;;8.67;;
2474;SDS011;1248;48.694;10.160;2022-08-20T08:59:18;9.00;;;8.20;;
2474;SDS011;1248;48.694;10.160;2022-08-20T09:01:47;8.57;;;7.77;;
2474;SDS011;1248;48.694;10.160;2022-08-20T09:04:17;14.33;;;8.90;;
2474;SDS011;1248;48.694;10.160;2022-08-20T09:06:46;8.90;;;7.97;;
2474;SDS011;1248;48.694;10.160;2022-08-20T09:09:16;10.33;;;8.50;;
2474;SDS011;1248;48.694;10.160;2022-08-20T09:11:47;8.37;;;7.70;;
2474;SDS011;1248;48.694;10.160;2022-08-20T09:14:17;9.43;;;7.80;;
2474;SDS011;1248;48.694;10.160;2022-08-20T09:16:44;7.07;;;6.37;;
2474;SDS011;1248;48.694;10.160;2022-08-20T09:19:12;7.63;;;6.83;;
2474;SDS011;1248;48.694;10.160;2022-08-20T09:21:39;8.60;;;7.53;;
2474;SDS011;1248;48.694;10.160;2022-08-20T09:24:06;7.87;;;6.93;;
2474;SDS011;1248;48.694;10.160;2022-08-20T09:26:33;11.23;;;7.00;;
2474;SDS011;1248;48.694;10.160;2022-08-20T09:29:00;8.50;;;7.60;;
2474;SDS011;1248;48.694;10.160;2022-08-20T09:31:27;8.17;;;7.40;;
2474;SDS011;1248;48.694;10.160;2022-08-20T09:33:54;7.17;;;6.57;;
2474;SDS011;1248;48.694;10.160;2022-08-20T09:36:23;7.50;;;6.43;;
2474;SDS011;1248;48.694;10.160;2022-08-20T09:38:50;8.47;;;7.67;;
2474;SDS011;1248;48.694;10.160;2022-08-20T09:41:17;7.30;;;6.60;;
2474;SDS011;1248;48.694;10.160;2022-08-20T09:43:44;8.70;;;5.90;;
2474;SDS011;1248;48.694;10.160;2022-08-20T09:46:11;8.10;;;6.47;;
2474;SDS011;1248;48.694;10.160;2022-08-20T09:48:38;6.03;;;5.53;;
2474;SDS011;1248;48.694;10.160;2022-08-20T09:51:05;7.10;;;6.20;;
2474;SDS011;1248;48.694;10.160;2022-08-20T09:53:33;6.50;;;5.90;;
2474;SDS011;1248;48.694;10.160;2022-08-20T09:56:00;8.00;;;6.23;;
2474;SDS011;1248;48.694;10.160;2022-08-20T09:58:30;5.90;;;4.93;;
2474;SDS011;1248;48.694;10.160;2022-08-20T10:01:00;6.43;;;5.83;;
2474;SDS011;1248;48.694;10.160;2022-08-20T10:03:31;6.10;;;5.23;;
2474;SDS011;1248;48.694;10.160;2022-08-20T10:05:58;4.80;;;4.40;;
2474;SDS011;1248;48.694;10.160;2022-08-20T10:08:25;5.33;;;4.93;;
2474;SDS011;1248;48.694;10.160;2022-08-20T10:10:54;5.57;;;4.40;;
2474;SDS011;1248;48.694;10.160;2022-08-20T10:13:21;4.97;;;4.50;;
2474;SDS011;1248;48.694;10.160;2022-08-20T10:15:48;5.23;;;4.30;;
2474;SDS011;1248;48.694;10.160;2022-08-20T10:18:15;5.77;;;3.80;;
2474;SDS011;1248;48.694;10.160;2022-08-20T10:20:42;3.50;;;3.20;;
2474;SDS011;1248;48.694;10.160;2022-08-20T10:23:09;4.33;;;3.97;;
2474;SDS011;1248;48.694;10.160;2022-08-20T10:25:36;6.80;;;4.50;;
2474;SDS011;1248;48.694;10.160;2022-08-20T10:28:05;5.87;;;4.67;;
2474;SDS011;1248;48.694;10.160;2022-08-20T10:30:32;5.97;;;4.00;;
2474;SDS011;1248;48.694;10.160;2022-08-20T10:32:59;5.47;;;4.40;;
2474;SDS011;1248;48.694;10.160;2022-08-20T10:35:26;4.53;;;4.13;;
2474;SDS011;1248;48.694;10.160;2022-08-20T10:37:54;4.23;;;3.83;;
2474;SDS011;1248;48.694;10.160;2022-08-20T10:40:21;3.77;;;3.47;;
2474;SDS011;1248;48.694;10.160;2022-08-20T10:42:48;5.60;;;3.60;;
2474;SDS011;1248;48.694;10.160;2022-08-20T10:45:17;4.93;;;4.40;;
2474;SDS011;1248;48.694;10.160;2022-08-20T10:47:44;3.87;;;3.43;;
2474;SDS011;1248;48.694;10.160;2022-08-20T10:50:13;3.30;;;3.00;;
2474;SDS011;1248;48.694;10.160;2022-08-20T10:52:41;3.40;;;3.10;;
2474;SDS011;1248;48.694;10.160;2022-08-20T10:55:08;3.13;;;2.87;;
2474;SDS011;1248;48.694;10.160;2022-08-20T10:57:37;2.90;;;2.70;;
2474;SDS011;1248;48.694;10.160;2022-08-20T11:00:05;2.93;;;2.70;;
2474;SDS011;1248;48.694;10.160;2022-08-20T11:02:35;3.50;;;3.20;;
2474;SDS011;1248;48.694;10.160;2022-08-20T11:05:02;3.73;;;3.30;;
2474;SDS011;1248;48.694;10.160;2022-08-20T11:07:30;3.97;;;3.47;;
2474;SDS011;1248;48.694;10.160;2022-08-20T11:09:58;2.70;;;2.50;;
2474;SDS011;1248;48.694;10.160;2022-08-20T11:12:25;3.20;;;3.00;;
2474;SDS011;1248;48.694;10.160;2022-08-20T11:14:53;3.60;;;2.63;;
2474;SDS011;1248;48.694;10.160;2022-08-20T11:17:20;3.30;;;2.93;;
2474;SDS011;1248;48.694;10.160;2022-08-20T11:19:50;3.60;;;3.00;;
2474;SDS011;1248;48.694;10.160;2022-08-20T11:22:17;4.30;;;3.03;;
2474;SDS011;1248;48.694;10.160;2022-08-20T11:24:44;3.00;;;2.70;;
2474;SDS011;1248;48.694;10.160;2022-08-20T11:27:20;3.30;;;3.00;;
2474;SDS011;1248;48.694;10.160;2022-08-20T11:29:49;3.70;;;3.40;;
2474;SDS011;1248;48.694;10.160;2022-08-20T11:32:16;3.33;;;2.60;;
2474;SDS011;1248;48.694;10.160;2022-08-20T11:34:44;2.93;;;2.73;;
2474;SDS011;1248;48.694;10.160;2022-08-20T11:37:12;3.77;;;3.30;;
2474;SDS011;1248;48.694;10.160;2022-08-20T11:39:40;3.67;;;3.37;;
2474;SDS011;1248;48.694;10.160;2022-08-20T11:42:07;3.60;;;3.30;;
2474;SDS011;1248;48.694;10.160;2022-08-20T11:44:34;3.20;;;2.90;;
2474;SDS011;1248;48.694;10.160;2022-08-20T11:47:02;3.40;;;3.10;;
2474;SDS011;1248;48.694;10.160;2022-08-20T11:49:30;8.17;;;3.47;;
2474;SDS011;1248;48.694;10.160;2022-08-20T11:51:58;3.03;;;2.67;;
2474;SDS011;1248;48.694;10.160;2022-08-20T11:54:26;3.63;;;3.33;;
2474;SDS011;1248;48.694;10.160;2022-08-20T11:56:53;2.90;;;2.70;;
2474;SDS011;1248;48.694;10.160;2022-08-20T11:59:22;2.87;;;2.50;;
2474;SDS011;1248;48.694;10.160;2022-08-20T12:01:49;2.83;;;2.53;;
2474;SDS011;1248;48.694;10.160;2022-08-20T12:04:18;2.93;;;2.70;;
2474;SDS011;1248;48.694;10.160;2022-08-20T12:06:45;2.17;;;1.97;;
2474;SDS011;1248;48.694;10.160;2022-08-20T12:09:12;2.10;;;1.77;;
2474;SDS011;1248;48.694;10.160;2022-08-20T12:11:41;2.70;;;1.23;;
2474;SDS011;1248;48.694;10.160;2022-08-20T12:14:08;7.13;;;2.60;;
2474;SDS011;1248;48.694;10.160;2022-08-20T12:16:35;5.53;;;2.53;;
2474;SDS011;1248;48.694;10.160;2022-08-20T12:19:02;3.43;;;2.30;;
2474;SDS011;1248;48.694;10.160;2022-08-20T12:21:29;3.03;;;2.73;;
2474;SDS011;1248;48.694;10.160;2022-08-20T12:23:56;8.10;;;2.80;;
2474;SDS011;1248;48.694;10.160;2022-08-20T12:26:23;3.73;;;2.80;;
2474;SDS011;1248;48.694;10.160;2022-08-20T12:28:51;3.40;;;2.97;;
2474;SDS011;1248;48.694;10.160;2022-08-20T12:31:20;5.03;;;4.07;;
2474;SDS011;1248;48.694;10.160;2022-08-20T12:33:47;5.53;;;3.93;;
2474;SDS011;1248;48.694;10.160;2022-08-20T12:36:14;5.87;;;3.47;;
2474;SDS011;1248;48.694;10.160;2022-08-20T12:38:41;6.60;;;3.30;;
2474;SDS011;1248;48.694;10.160;2022-08-20T12:41:08;5.13;;;4.60;;
2474;SDS011;1248;48.694;10.160;2022-08-20T12:43:35;7.90;;;4.20;;
2474;SDS011;1248;48.694;10.160;2022-08-20T12:46:03;8.97;;;4.37;;
2474;SDS011;1248;48.694;10.160;2022-08-20T12:48:30;5.70;;;5.10;;
2474;SDS011;1248;48.694;10.160;2022-08-20T12:50:57;6.93;;;5.57;;
2474;SDS011;1248;48.694;10.160;2022-08-20T12:53:24;5.50;;;5.00;;
2474;SDS011;1248;48.694;10.160;2022-08-20T12:55:51;7.03;;;5.17;;
2474;SDS011;1248;48.694;10.160;2022-08-20T12:58:18;6.60;;;5.33;;
2474;SDS011;1248;48.694;10.160;2022-08-20T13:00:45;5.40;;;4.30;;
2474;SDS011;1248;48.694;10.160;2022-08-20T13:03:14;6.10;;;5.50;;
2474;SDS011;1248;48.694;10.160;2022-08-20T13:05:41;4.87;;;4.40;;
2474;SDS011;1248;48.694;10.160;2022-08-20T13:08:09;5.70;;;5.20;;
2474;SDS011;1248;48.694;10.160;2022-08-20T13:10:38;5.33;;;4.20;;
2474;SDS011;1248;48.694;10.160;2022-08-20T13:13:08;6.60;;;5.00;;
2474;SDS011;1248;48.694;10.160;2022-08-20T13:15:36;5.70;;;3.90;;
2474;SDS011;1248;48.694;10.160;2022-08-20T13:18:04;4.53;;;4.00;;
2474;SDS011;1248;48.694;10.160;2022-08-20T13:20:33;7.70;;;5.60;;
2474;SDS011;1248;48.694;10.160;2022-08-20T13:23:00;7.00;;;6.40;;
2474;SDS011;1248;48.694;10.160;2022-08-20T13:25:28;7.70;;;6.90;;
2474;SDS011;1248;48.694;10.160;2022-08-20T13:27:56;7.07;;;6.40;;
2474;SDS011;1248;48.694;10.160;2022-08-20T13:30:24;19.87;;;7.37;;
2474;SDS011;1248;48.694;10.160;2022-08-20T13:32:52;6.40;;;5.90;;
2474;SDS011;1248;48.694;10.160;2022-08-20T13:35:19;9.03;;;8.23;;
2474;SDS011;1248;48.694;10.160;2022-08-20T13:37:48;6.47;;;5.87;;
2474;SDS011;1248;48.694;10.160;2022-08-20T13:40:16;6.70;;;5.83;;
2474;SDS011;1248;48.694;10.160;2022-08-20T13:42:43;4.00;;;3.70;;
2474;SDS011;1248;48.694;10.160;2022-08-20T13:45:10;3.33;;;3.03;;
2474;SDS011;1248;48.694;10.160;2022-08-20T13:47:39;2.40;;;1.90;;
2474;SDS011;1248;48.694;10.160;2022-08-20T13:50:07;1.40;;;1.30;;
2474;SDS011;1248;48.694;10.160;2022-08-20T13:52:36;1.77;;;1.30;;
2474;SDS011;1248;48.694;10.160;2022-08-20T13:55:06;1.50;;;1.40;;
2474;SDS011;1248;48.694;10.160;2022-08-20T13:57:34;1.63;;;1.10;;
2474;SDS011;1248;48.694;10.160;2022-08-20T14:00:05;1.73;;;1.10;;
2474;SDS011;1248;48.694;10.160;2022-08-20T14:02:35;1.40;;;1.30;;
2474;SDS011;1248;48.694;10.160;2022-08-20T14:05:02;1.97;;;1.00;;
2474;SDS011;1248;48.694;10.160;2022-08-20T14:07:29;1.60;;;1.20;;
2474;SDS011;1248;48.694;10.160;2022-08-20T14:09:58;1.47;;;1.20;;
2474;SDS011;1248;48.694;10.160;2022-08-20T14:12:28;1.60;;;1.43;;
2474;SDS011;1248;48.694;10.160;2022-08-20T14:14:55;1.20;;;1.00;;
2474;SDS011;1248;48.694;10.160;2022-08-20T14:17:25;1.50;;;1.20;;
2474;SDS011;1248;48.694;10.160;2022-08-20T14:19:53;1.30;;;1.20;;
2474;SDS011;1248;48.694;10.160;2022-08-20T14:22:22;2.70;;;1.40;;
2474;SDS011;1248;48.694;10.160;2022-08-20T14:24:49;2.13;;;1.53;;
2474;SDS011;1248;48.694;10.160;2022-08-20T14:27:17;2.83;;;1.20;;
2474;SDS011;1248;48.694;10.160;2022-08-20T14:29:47;1.60;;;1.30;;
2474;SDS011;1248;48.694;10.160;2022-08-20T14:32:15;4.80;;;1.40;;
2474;SDS011;1248;48.694;10.160;2022-08-20T14:34:43;1.37;;;1.10;;
2474;SDS011;1248;48.694;10.160;2022-08-20T14:37:14;1.77;;;1.20;;
2474;SDS011;1248;48.694;10.160;2022-08-20T14:39:42;2.60;;;1.40;;
2474;SDS011;1248;48.694;10.160;2022-08-20T14:42:10;2.10;;;1.10;;
2474;SDS011;1248;48.694;10.160;2022-08-20T14:44:38;1.20;;;1.00;;
2474;SDS011;1248;48.694;10.160;2022-08-20T14:47:10;1.80;;;1.20;;
2474;SDS011;1248;48.694;10.160;2022-08-20T14:49:38;3.10;;;1.47;;
2474;SDS011;1248;48.694;10.160;2022-08-20T14:52:05;1.50;;;1.30;;
2474;SDS011;1248;48.694;10.160;2022-08-20T14:54:32;4.50;;;1.63;;
2474;SDS011;1248;48.694;10.160;2022-08-20T14:56:59;1.20;;;1.03;;
2474;SDS011;1248;48.694;10.160;2022-08-20T14:59:27;1.37;;;1.20;;
2474;SDS011;1248;48.694;10.160;2022-08-20T15:01:54;1.73;;;1.33;;
2474;SDS011;1248;48.694;10.160;2022-08-20T15:04:22;2.60;;;1.50;;
2474;SDS011;1248;48.694;10.160;2022-08-20T15:06:49;2.43;;;1.50;;